FLI414 EKVG-EGPH
Flight info
| Callsign | FLI414 |
|---|---|
| Flight time | N/A |
| Altitude | 35000 |
| Route | ODEVA DCT NALAN DCT LAGAV/N0365F240 N560 FOYLE DCT STIRA EGPH/06 |
| Aircraft | A320/M-SDE3FGHIRWY/LB1 |
Departure
| Time | N/A |
|---|---|
| Airport | Vágar Airport (EKVG) |
Arrival
| Time | 2026-05-06 16:32 |
|---|---|
| Airport | Edinburgh Airport (EGPH) |
| Time | Latitude | Longitude | Altitude | Speed | Heading |
|---|---|---|---|---|---|
| 2026-05-06 16:25 | 55.81582 | -3.81976 | 4000 ft | 179 kts | 93° |
| 2026-05-06 16:25 | 55.81562 | -3.79742 | 3997 ft | 179 kts | 94° |
| 2026-05-06 16:25 | 55.81580 | -3.77560 | 4005 ft | 180 kts | 85° |
| 2026-05-06 16:26 | 55.81948 | -3.75437 | 4000 ft | 182 kts | 65° |
| 2026-05-06 16:26 | 55.82604 | -3.73496 | 4004 ft | 183 kts | 60° |
| 2026-05-06 16:26 | 55.83269 | -3.71573 | 3994 ft | 179 kts | 61° |
| 2026-05-06 16:26 | 55.83910 | -3.69711 | 4010 ft | 174 kts | 60° |
| 2026-05-06 16:27 | 55.84541 | -3.67875 | 3911 ft | 173 kts | 61° |
| 2026-05-06 16:27 | 55.85168 | -3.66049 | 3713 ft | 171 kts | 61° |
| 2026-05-06 16:27 | 55.85766 | -3.64310 | 3500 ft | 159 kts | 62° |
| 2026-05-06 16:27 | 55.86341 | -3.62633 | 3301 ft | 164 kts | 60° |
| 2026-05-06 16:28 | 55.86944 | -3.60871 | 3060 ft | 168 kts | 61° |
| 2026-05-06 16:28 | 55.87556 | -3.59086 | 2840 ft | 169 kts | 61° |
| 2026-05-06 16:28 | 55.88165 | -3.57306 | 2601 ft | 168 kts | 60° |
| 2026-05-06 16:28 | 55.88762 | -3.55562 | 2381 ft | 167 kts | 60° |
| 2026-05-06 16:29 | 55.89365 | -3.53797 | 2139 ft | 166 kts | 61° |
| 2026-05-06 16:29 | 55.89965 | -3.52040 | 1913 ft | 166 kts | 62° |
| 2026-05-06 16:29 | 55.90561 | -3.50295 | 1684 ft | 164 kts | 62° |
| 2026-05-06 16:29 | 55.91135 | -3.48614 | 1460 ft | 150 kts | 60° |
| 2026-05-06 16:30 | 55.91657 | -3.47084 | 1244 ft | 140 kts | 61° |
| 2026-05-06 16:30 | 55.91992 | -3.46099 | 1120 ft | 135 kts | 62° |
| 2026-05-06 16:30 | 55.92623 | -3.44244 | 862 ft | 130 kts | 60° |
| 2026-05-06 16:30 | 55.93084 | -3.42888 | 700 ft | 127 kts | 60° |
| 2026-05-06 16:31 | 55.93538 | -3.41552 | 527 ft | 125 kts | 60° |
| 2026-05-06 16:31 | 55.93987 | -3.40230 | 369 ft | 123 kts | 60° |
| 2026-05-06 16:31 | 55.94436 | -3.38930 | 203 ft | 123 kts | 59° |
| 2026-05-06 16:31 | 55.94865 | -3.37639 | 114 ft | 114 kts | 59° |
| 2026-05-06 16:32 | 55.95191 | -3.36681 | 113 ft | 66 kts | 59° |
| 2026-05-06 16:32 | 55.95367 | -3.36159 | 109 ft | 42 kts | 57° |
| 2026-05-06 16:32 | 55.95511 | -3.35741 | 113 ft | 40 kts | 60° |
| 2026-05-06 16:32 | 55.95532 | -3.35474 | 113 ft | 18 kts | 138° |
| 2026-05-06 16:33 | 55.95428 | -3.35429 | 112 ft | 16 kts | 216° |
| 2026-05-06 16:33 | 55.95371 | -3.35580 | 116 ft | 14 kts | 240° |
| 2026-05-06 16:33 | 55.95321 | -3.35728 | 112 ft | 14 kts | 237° |
| 2026-05-06 16:34 | 55.95272 | -3.35872 | 112 ft | 0 kts | 239° |
| 2026-05-06 16:34 | 55.95242 | -3.35960 | 114 ft | 17 kts | 239° |
| 2026-05-06 16:34 | 55.95154 | -3.36222 | 114 ft | 29 kts | 238° |
| 2026-05-06 16:34 | 55.95045 | -3.36541 | 114 ft | 31 kts | 238° |
| 2026-05-06 16:35 | 55.94942 | -3.36825 | 113 ft | 15 kts | 212° |
| 2026-05-06 16:35 | 55.94881 | -3.36795 | 116 ft | 11 kts | 155° |
| 2026-05-06 16:35 | 55.94796 | -3.36774 | 116 ft | 12 kts | 179° |
| 2026-05-06 16:35 | 55.94751 | -3.36684 | 115 ft | 8 kts | 89° |
| 2026-05-06 16:36 | 55.94752 | -3.36611 | 116 ft | 0 kts | 88° |